sensor_id;sensor_type;location;lat;lon;timestamp;pressure;altitude;pressure_sealevel;temperature;humidity
26915;BME280;14480;52.608;13.416;2023-05-23T06:14:37;143869.03;;;-0.48;100.00
26915;BME280;14480;52.608;13.416;2023-05-23T06:19:42;143877.78;;;-0.44;100.00
26915;BME280;14480;52.608;13.416;2023-05-23T06:24:46;143939.97;;;-0.19;100.00
26915;BME280;14480;52.608;13.416;2023-05-23T06:29:53;143918.81;;;-0.27;100.00
26915;BME280;14480;52.608;13.416;2023-05-23T06:34:57;143964.84;;;-0.09;100.00
26915;BME280;14480;52.608;13.416;2023-05-23T06:40:03;144003.41;;;0.07;100.00
26915;BME280;14480;52.608;13.416;2023-05-23T06:45:09;144061.88;;;0.31;100.00
26915;BME280;14480;52.608;13.416;2023-05-23T06:50:14;144099.22;;;0.46;100.00
26915;BME280;14480;52.608;13.416;2023-05-23T06:55:22;144146.53;;;0.66;100.00
26915;BME280;14480;52.608;13.416;2023-05-23T07:00:27;144111.69;;;0.51;100.00
26915;BME280;14480;52.608;13.416;2023-05-23T07:05:49;144339.53;;;1.44;100.00
26915;BME280;14480;52.608;13.416;2023-05-23T07:10:56;144507.75;;;2.13;97.72
26915;BME280;14480;52.608;13.416;2023-05-23T07:16:12;144728.44;;;3.03;87.78
26915;BME280;14480;52.608;13.416;2023-05-23T07:21:27;144710.97;;;2.96;81.68
26915;BME280;14480;52.608;13.416;2023-05-23T07:26:31;144841.97;;;3.49;77.54
26915;BME280;14480;52.608;13.416;2023-05-23T07:31:36;144896.88;;;3.72;77.75
26915;BME280;14480;52.608;13.416;2023-05-23T07:36:41;144949.28;;;3.93;78.11
26915;BME280;14480;52.608;13.416;2023-05-23T07:41:46;144992.97;;;4.11;72.06
26915;BME280;14480;52.608;13.416;2023-05-23T07:46:52;145051.66;;;4.35;71.33
26915;BME280;14480;52.608;13.416;2023-05-23T07:51:57;145142.81;;;4.72;70.62
26915;BME280;14480;52.608;13.416;2023-05-23T07:57:01;145211.53;;;5.00;71.29
26915;BME280;14480;52.608;13.416;2023-05-23T08:02:07;145162.81;;;4.80;71.60
26915;BME280;14480;52.608;13.416;2023-05-23T08:07:13;145297.75;;;5.35;70.31
26915;BME280;14480;52.608;13.416;2023-05-23T08:12:24;145357.72;;;5.60;69.98
26915;BME280;14480;52.608;13.416;2023-05-23T08:17:43;145310.22;;;5.40;71.19
26915;BME280;14480;52.608;13.416;2023-05-23T08:22:49;145441.53;;;5.94;69.26
26915;BME280;14480;52.608;13.416;2023-05-23T08:27:54;145461.50;;;6.02;69.80
26915;BME280;14480;52.608;13.416;2023-05-23T08:33:20;145266.50;;;5.22;68.93
26915;BME280;14480;52.608;13.416;2023-05-23T08:38:28;145312.72;;;5.41;71.38
26915;BME280;14480;52.608;13.416;2023-05-23T08:43:56;145354.00;;;5.58;71.11
26915;BME280;14480;52.608;13.416;2023-05-23T08:49:06;145524.06;;;6.27;68.35
26915;BME280;14480;52.608;13.416;2023-05-23T08:54:15;145321.50;;;5.45;71.17
26915;BME280;14480;52.608;13.416;2023-05-23T08:59:20;145435.28;;;5.91;69.42
26915;BME280;14480;52.608;13.416;2023-05-23T09:04:28;145545.28;;;6.36;70.45
26915;BME280;14480;52.608;13.416;2023-05-23T09:10:09;145746.75;;;7.18;69.68
26915;BME280;14480;52.608;13.416;2023-05-23T09:15:13;145710.41;;;7.03;69.93
26915;BME280;14480;52.608;13.416;2023-05-23T09:20:21;145676.66;;;6.89;70.86
26915;BME280;14480;52.608;13.416;2023-05-23T09:25:31;145831.81;;;7.52;71.19
26915;BME280;14480;52.608;13.416;2023-05-23T09:30:35;145977.09;;;8.11;68.90
26915;BME280;14480;52.608;13.416;2023-05-23T09:35:46;146027.16;;;8.32;68.21
26915;BME280;14480;52.608;13.416;2023-05-23T09:40:50;145957.03;;;8.03;68.98
26915;BME280;14480;52.608;13.416;2023-05-23T09:46:00;145899.44;;;7.80;70.40
26915;BME280;14480;52.608;13.416;2023-05-23T09:51:08;145973.28;;;8.10;71.05
26915;BME280;14480;52.608;13.416;2023-05-23T09:56:12;145856.84;;;7.63;73.33
26915;BME280;14480;52.608;13.416;2023-05-23T10:01:18;146019.66;;;8.29;72.30
26915;BME280;14480;52.608;13.416;2023-05-23T10:06:26;146082.31;;;8.54;72.53
26915;BME280;14480;52.608;13.416;2023-05-23T10:16:54;146009.63;;;8.25;74.57
26915;BME280;14480;52.608;13.416;2023-05-23T10:22:03;145938.22;;;7.96;73.64
26915;BME280;14480;52.608;13.416;2023-05-23T10:27:11;145863.16;;;7.65;71.18
26915;BME280;14480;52.608;13.416;2023-05-23T10:32:15;145965.78;;;8.07;76.20
26915;BME280;14480;52.608;13.416;2023-05-23T10:37:22;145972.03;;;8.09;75.07
26915;BME280;14480;52.608;13.416;2023-05-23T10:42:33;145762.97;;;7.24;72.71
26915;BME280;14480;52.608;13.416;2023-05-23T10:47:43;145649.13;;;6.78;74.71
26915;BME280;14480;52.608;13.416;2023-05-23T10:52:50;145669.16;;;6.86;76.53
26915;BME280;14480;52.608;13.416;2023-05-23T10:58:08;145964.53;;;8.06;73.99
26915;BME280;14480;52.608;13.416;2023-05-23T11:03:14;146030.91;;;8.33;73.93
26915;BME280;14480;52.608;13.416;2023-05-23T11:08:37;145967.03;;;8.07;79.35
26915;BME280;14480;52.608;13.416;2023-05-23T11:13:54;145901.94;;;7.81;83.21
26915;BME280;14480;52.608;13.416;2023-05-23T11:24:22;145801.75;;;7.40;87.24
26915;BME280;14480;52.608;13.416;2023-05-23T11:29:26;145829.31;;;7.51;86.61
26915;BME280;14480;52.608;13.416;2023-05-23T11:34:31;145754.25;;;7.21;86.80
26915;BME280;14480;52.608;13.416;2023-05-23T11:39:36;145801.75;;;7.40;86.76
26915;BME280;14480;52.608;13.416;2023-05-23T11:44:39;145779.28;;;7.31;88.38
26915;BME280;14480;52.608;13.416;2023-05-23T11:49:43;145791.78;;;7.36;89.84
26915;BME280;14480;52.608;13.416;2023-05-23T11:54:49;145652.88;;;6.80;92.07
26915;BME280;14480;52.608;13.416;2023-05-23T11:59:56;145500.28;;;6.18;93.35
26915;BME280;14480;52.608;13.416;2023-05-23T12:05:05;145456.50;;;6.00;96.51
26915;BME280;14480;52.608;13.416;2023-05-23T12:10:10;145425.22;;;5.87;93.93
26915;BME280;14480;52.608;13.416;2023-05-23T12:15:14;145455.25;;;5.99;95.55
26915;BME280;14480;52.608;13.416;2023-05-23T12:20:18;145501.53;;;6.18;93.56
26915;BME280;14480;52.608;13.416;2023-05-23T12:25:23;145279.00;;;5.27;100.00
26915;BME280;14480;52.608;13.416;2023-05-23T12:30:27;145460.25;;;6.01;95.20
26915;BME280;14480;52.608;13.416;2023-05-23T12:35:31;145459.00;;;6.01;96.82
26915;BME280;14480;52.608;13.416;2023-05-23T12:40:36;145421.47;;;5.85;95.80
26915;BME280;14480;52.608;13.416;2023-05-23T12:45:42;145422.72;;;5.86;96.63
26915;BME280;14480;52.608;13.416;2023-05-23T12:50:46;145484.03;;;6.11;95.07
26915;BME280;14480;52.608;13.416;2023-05-23T12:55:51;145539.03;;;6.33;92.83
26915;BME280;14480;52.608;13.416;2023-05-23T13:00:55;145512.78;;;6.23;93.07
26915;BME280;14480;52.608;13.416;2023-05-23T13:05:58;145411.47;;;5.81;93.14
26915;BME280;14480;52.608;13.416;2023-05-23T13:11:04;145398.97;;;5.76;95.91
26915;BME280;14480;52.608;13.416;2023-05-23T13:16:08;145235.28;;;5.10;100.00
26915;BME280;14480;52.608;13.416;2023-05-23T13:21:12;145239.03;;;5.11;100.00
26915;BME280;14480;52.608;13.416;2023-05-23T13:26:17;145140.31;;;4.71;100.00
26915;BME280;14480;52.608;13.416;2023-05-23T13:31:21;145087.84;;;4.50;100.00
26915;BME280;14480;52.608;13.416;2023-05-23T13:36:24;144944.28;;;3.91;100.00
26915;BME280;14480;52.608;13.416;2023-05-23T13:41:29;144865.69;;;3.59;100.00
26915;BME280;14480;52.608;13.416;2023-05-23T13:46:33;144903.13;;;3.74;100.00
26915;BME280;14480;52.608;13.416;2023-05-23T13:51:37;144891.84;;;3.70;100.00
26915;BME280;14480;52.608;13.416;2023-05-23T13:56:42;144764.63;;;3.18;100.00
26915;BME280;14480;52.608;13.416;2023-05-23T14:01:46;144684.78;;;2.85;100.00
26915;BME280;14480;52.608;13.416;2023-05-23T14:06:50;144622.44;;;2.60;100.00
26915;BME280;14480;52.608;13.416;2023-05-23T14:17:17;144696.03;;;2.90;100.00
26915;BME280;14480;52.608;13.416;2023-05-23T14:22:21;144750.88;;;3.12;100.00
26915;BME280;14480;52.608;13.416;2023-05-23T14:27:26;144674.81;;;2.81;100.00
26915;BME280;14480;52.608;13.416;2023-05-23T14:32:31;144553.88;;;2.32;100.00
26915;BME280;14480;52.608;13.416;2023-05-23T14:37:40;144510.25;;;2.14;100.00
26915;BME280;14480;52.608;13.416;2023-05-23T14:42:45;144494.03;;;2.08;100.00
26915;BME280;14480;52.608;13.416;2023-05-23T14:47:51;144460.38;;;1.94;100.00
26915;BME280;14480;52.608;13.416;2023-05-23T14:52:54;144425.50;;;1.80;100.00
26915;BME280;14480;52.608;13.416;2023-05-23T14:57:58;144410.53;;;1.73;100.00
26915;BME280;14480;52.608;13.416;2023-05-23T15:03:05;144229.94;;;1.00;100.00
26915;BME280;14480;52.608;13.416;2023-05-23T15:08:09;144089.25;;;0.42;100.00
26915;BME280;14480;52.608;13.416;2023-05-23T15:13:15;143974.78;;;-0.05;100.00
26915;BME280;14480;52.608;13.416;2023-05-23T15:18:20;143881.50;;;-0.43;100.00
26915;BME280;14480;52.608;13.416;2023-05-23T15:23:42;143837.97;;;-0.61;100.00
26915;BME280;14480;52.608;13.416;2023-05-23T15:28:47;143786.97;;;-0.81;100.00
26915;BME280;14480;52.608;13.416;2023-05-23T15:33:52;143758.38;;;-0.93;100.00
26915;BME280;14480;52.608;13.416;2023-05-23T15:38:55;143741.00;;;-1.00;100.00
26915;BME280;14480;52.608;13.416;2023-05-23T15:43:58;143647.81;;;-1.38;100.00
26915;BME280;14480;52.608;13.416;2023-05-23T15:49:03;143580.69;;;-1.66;100.00
26915;BME280;14480;52.608;13.416;2023-05-23T15:54:25;143563.31;;;-1.73;100.00
26915;BME280;14480;52.608;13.416;2023-05-23T15:59:29;143547.16;;;-1.80;100.00
26915;BME280;14480;52.608;13.416;2023-05-23T16:04:34;143511.13;;;-1.94;100.00
26915;BME280;14480;52.608;13.416;2023-05-23T16:09:40;143521.06;;;-1.90;100.00
26915;BME280;14480;52.608;13.416;2023-05-23T16:14:43;143424.22;;;-2.30;100.00
26915;BME280;14480;52.608;13.416;2023-05-23T16:19:51;143430.41;;;-2.27;100.00
26915;BME280;14480;52.608;13.416;2023-05-23T16:24:56;143409.28;;;-2.36;100.00
26915;BME280;14480;52.608;13.416;2023-05-23T16:30:00;143363.34;;;-2.55;100.00
26915;BME280;14480;52.608;13.416;2023-05-23T16:35:05;143278.94;;;-2.89;100.00
26915;BME280;14480;52.608;13.416;2023-05-23T16:40:12;143269.00;;;-2.94;100.00
26915;BME280;14480;52.608;13.416;2023-05-23T16:45:16;143244.19;;;-3.04;100.00
26915;BME280;14480;52.608;13.416;2023-05-23T16:50:20;143236.75;;;-3.07;100.00
26915;BME280;14480;52.608;13.416;2023-05-23T16:55:24;143246.66;;;-3.03;100.00
26915;BME280;14480;52.608;13.416;2023-05-23T17:00:28;143205.75;;;-3.19;100.00
26915;BME280;14480;52.608;13.416;2023-05-23T17:05:33;143142.47;;;-3.45;100.00
26915;BME280;14480;52.608;13.416;2023-05-23T17:10:39;143074.25;;;-3.73;100.00
26915;BME280;14480;52.608;13.416;2023-05-23T17:15:43;143035.81;;;-3.89;100.00
26915;BME280;14480;52.608;13.416;2023-05-23T17:20:48;143085.44;;;-3.69;100.00
26915;BME280;14480;52.608;13.416;2023-05-23T17:25:53;143056.91;;;-3.80;100.00
26915;BME280;14480;52.608;13.416;2023-05-23T17:30:57;143061.84;;;-3.78;100.00
26915;BME280;14480;52.608;13.416;2023-05-23T17:36:03;143034.56;;;-3.90;100.00
26915;BME280;14480;52.608;13.416;2023-05-23T17:41:10;142986.22;;;-4.09;100.00
26915;BME280;14480;52.608;13.416;2023-05-23T17:46:15;143025.91;;;-3.93;100.00
26915;BME280;14480;52.608;13.416;2023-05-23T17:51:20;142945.31;;;-4.26;100.00
26915;BME280;14480;52.608;13.416;2023-05-23T17:56:24;142957.69;;;-4.21;100.00
26915;BME280;14480;52.608;13.416;2023-05-23T18:01:27;142965.13;;;-4.18;100.00
26915;BME280;14480;52.608;13.416;2023-05-23T18:06:32;142929.19;;;-4.33;100.00
26915;BME280;14480;52.608;13.416;2023-05-23T18:11:36;142947.78;;;-4.25;100.00
26915;BME280;14480;52.608;13.416;2023-05-23T18:16:40;142911.81;;;-4.40;100.00
26915;BME280;14480;52.608;13.416;2023-05-23T18:21:47;142908.09;;;-4.42;100.00
26915;BME280;14480;52.608;13.416;2023-05-23T18:26:51;142906.88;;;-4.42;100.00
26915;BME280;14480;52.608;13.416;2023-05-23T18:31:56;142915.56;;;-4.38;100.00
26915;BME280;14480;52.608;13.416;2023-05-23T18:37:04;142896.97;;;-4.46;100.00
26915;BME280;14480;52.608;13.416;2023-05-23T18:42:10;142949.03;;;-4.25;100.00
26915;BME280;14480;52.608;13.416;2023-05-23T18:47:14;142919.28;;;-4.37;100.00
26915;BME280;14480;52.608;13.416;2023-05-23T18:52:20;142946.56;;;-4.26;100.00
26915;BME280;14480;52.608;13.416;2023-05-23T18:57:24;142915.56;;;-4.38;100.00
26915;BME280;14480;52.608;13.416;2023-05-23T19:02:31;142978.78;;;-4.13;100.00
26915;BME280;14480;52.608;13.416;2023-05-23T19:07:52;142949.03;;;-4.25;100.00
26915;BME280;14480;52.608;13.416;2023-05-23T19:12:56;142939.09;;;-4.29;100.00
26915;BME280;14480;52.608;13.416;2023-05-23T19:18:02;142986.22;;;-4.09;100.00
26915;BME280;14480;52.608;13.416;2023-05-23T19:23:09;142977.53;;;-4.13;100.00
26915;BME280;14480;52.608;13.416;2023-05-23T19:28:17;142991.16;;;-4.07;100.00
26915;BME280;14480;52.608;13.416;2023-05-23T19:33:23;142991.16;;;-4.07;100.00
26915;BME280;14480;52.608;13.416;2023-05-23T19:38:29;143002.34;;;-4.03;100.00
26915;BME280;14480;52.608;13.416;2023-05-23T19:43:33;143012.25;;;-3.99;100.00
26915;BME280;14480;52.608;13.416;2023-05-23T19:48:40;143006.06;;;-4.01;100.00
26915;BME280;14480;52.608;13.416;2023-05-23T19:53:47;143043.25;;;-3.86;100.00
26915;BME280;14480;52.608;13.416;2023-05-23T19:58:52;143014.72;;;-3.98;100.00
26915;BME280;14480;52.608;13.416;2023-05-23T20:03:56;143055.66;;;-3.81;100.00
26915;BME280;14480;52.608;13.416;2023-05-23T20:09:02;143055.66;;;-3.81;100.00
26915;BME280;14480;52.608;13.416;2023-05-23T20:14:10;143066.81;;;-3.76;100.00
26915;BME280;14480;52.608;13.416;2023-05-23T20:19:14;143091.63;;;-3.66;100.00
26915;BME280;14480;52.608;13.416;2023-05-23T20:24:20;143113.94;;;-3.57;100.00
26915;BME280;14480;52.608;13.416;2023-05-23T20:29:24;143122.63;;;-3.54;100.00
26915;BME280;14480;52.608;13.416;2023-05-23T20:34:34;143077.94;;;-3.72;100.00
26915;BME280;14480;52.608;13.416;2023-05-23T20:39:41;143106.47;;;-3.60;100.00
26915;BME280;14480;52.608;13.416;2023-05-23T20:44:45;143092.84;;;-3.66;100.00
26915;BME280;14480;52.608;13.416;2023-05-23T20:49:49;143075.47;;;-3.73;100.00
26915;BME280;14480;52.608;13.416;2023-05-23T20:54:56;143025.91;;;-3.93;100.00
26915;BME280;14480;52.608;13.416;2023-05-23T21:00:02;143022.16;;;-3.95;100.00
26915;BME280;14480;52.608;13.416;2023-05-23T21:05:10;142997.41;;;-4.05;100.00
26915;BME280;14480;52.608;13.416;2023-05-23T21:10:17;142992.41;;;-4.07;100.00
26915;BME280;14480;52.608;13.416;2023-05-23T21:15:21;142951.50;;;-4.24;100.00
